Time;durP1;ratioP1;P1;durP2;ratioP2;P2;SDS_P1;SDS_P2;PMS_P1;PMS_P2;Temp;Humidity;BMP_temperature;BMP_pressure;BME280_temperature;BME280_humidity;BME280_pressure;Samples;Min_cycle;Max_cycle;Signal;HPM_P1;HPM_P2
2022/03/03 00:00:49;;;;;;;113.78;37.13;;;;;;;-149.78;100.00;50477.31;4807807;29;20425;-69
2022/03/03 00:03:15;;;;;;;107.90;37.05;;;;;;;-149.78;100.00;50526.22;4807869;29;20483;-69
2022/03/03 00:05:40;;;;;;;112.55;37.92;;;;;;;-149.78;100.00;50530.13;4809407;29;20045;-69
2022/03/03 00:08:08;;;;;;;113.97;36.70;;;;;;;-149.78;100.00;50510.56;4822755;29;20045;-70
2022/03/03 00:10:34;;;;;;;117.18;39.08;;;;;;;-149.78;100.00;50489.03;4824150;29;20038;-69
2022/03/03 00:13:01;;;;;;;107.57;38.42;;;;;;;-149.78;100.00;50537.94;4822339;29;20406;-69
2022/03/03 00:15:26;;;;;;;124.65;39.55;;;;;;;-149.78;100.00;50475.34;4789808;29;20043;-69
2022/03/03 00:17:52;;;;;;;115.32;39.67;;;;;;;-149.78;100.00;50512.50;4805831;29;20039;-69
2022/03/03 00:20:18;;;;;;;128.40;40.67;;;;;;;-149.78;100.00;50491.00;4789988;29;20039;-69
2022/03/03 00:22:44;;;;;;;116.25;39.83;;;;;;;-149.78;100.00;50489.03;4789950;29;20047;-69
2022/03/03 00:25:11;;;;;;;116.10;38.83;;;;;;;-149.78;100.00;50514.47;4806075;29;20388;-69
2022/03/03 00:27:36;;;;;;;125.10;40.20;;;;;;;-149.78;100.00;50547.72;4807595;29;20043;-69
2022/03/03 00:30:03;;;;;;;128.65;40.90;;;;;;;-149.78;100.00;50510.56;4809253;29;20055;-69
2022/03/03 00:32:28;;;;;;;130.68;42.58;;;;;;;-149.78;100.00;50518.38;4792893;29;20066;-69
2022/03/03 00:34:54;;;;;;;122.68;41.10;;;;;;;-149.78;100.00;50498.81;4792903;29;20492;-69
2022/03/03 00:37:20;;;;;;;132.32;41.75;;;;;;;-149.78;100.00;50520.34;4792942;29;20042;-69
2022/03/03 00:39:45;;;;;;;124.15;44.42;;;;;;;-149.78;100.00;50530.13;4809124;29;20425;-69
2022/03/03 00:42:11;;;;;;;131.85;42.50;;;;;;;-149.78;100.00;50489.03;4808936;29;20038;-69
2022/03/03 00:44:38;;;;;;;126.85;43.03;;;;;;;-149.78;100.00;50504.69;4792920;29;20051;-69
2022/03/03 00:47:03;;;;;;;129.93;45.65;;;;;;;-149.78;100.00;50510.56;4792869;29;20391;-69
2022/03/03 00:49:29;;;;;;;126.80;45.05;;;;;;;-149.78;100.00;50504.69;4808933;29;20441;-69
2022/03/03 00:51:54;;;;;;;137.77;47.00;;;;;;;-149.78;100.00;50491.00;4792428;29;20042;-69
2022/03/03 00:54:20;;;;;;;125.68;44.65;;;;;;;-149.78;100.00;50512.50;4792705;29;20066;-69
2022/03/03 00:56:46;;;;;;;134.88;45.28;;;;;;;-149.78;100.00;50487.09;4792533;29;20070;-69
2022/03/03 00:59:12;;;;;;;131.52;44.42;;;;;;;-149.78;100.00;50487.09;4804673;29;20506;-69
2022/03/03 01:01:38;;;;;;;136.68;46.33;;;;;;;-149.78;100.00;50463.63;4826706;29;20095;-69
2022/03/03 01:04:03;;;;;;;123.53;45.42;;;;;;;-149.78;100.00;50528.16;4826624;29;20031;-69
2022/03/03 01:06:29;;;;;;;133.45;44.65;;;;;;;-149.78;100.00;50467.53;4826682;29;20372;-69
2022/03/03 01:08:55;;;;;;;130.05;43.60;;;;;;;-149.78;100.00;50541.84;4826536;29;20391;-69
2022/03/03 01:11:21;;;;;;;144.90;46.33;;;;;;;-149.78;100.00;50506.66;4826488;29;20050;-69
2022/03/03 01:13:47;;;;;;;134.60;46.58;;;;;;;-149.78;100.00;50494.91;4826377;29;20050;-69
2022/03/03 01:16:13;;;;;;;130.93;42.88;;;;;;;-149.78;100.00;50489.03;4810363;29;20133;-69
2022/03/03 01:18:39;;;;;;;139.27;45.55;;;;;;;-149.78;100.00;50530.13;4825484;29;20441;-69
2022/03/03 01:21:05;;;;;;;127.57;44.22;;;;;;;-149.78;100.00;50479.28;4826426;29;20053;-69
2022/03/03 01:23:31;;;;;;;133.80;44.75;;;;;;;-149.78;100.00;50471.44;4826467;29;20043;-69
2022/03/03 01:25:56;;;;;;;121.28;42.40;;;;;;;-149.78;100.00;50477.31;4816634;29;20047;-69
2022/03/03 01:28:22;;;;;;;126.13;45.20;;;;;;;-149.78;100.00;50498.81;4792112;29;20042;-70
2022/03/03 01:30:48;;;;;;;127.85;44.78;;;;;;;-149.78;100.00;50508.59;4808049;29;20050;-69
2022/03/03 01:33:14;;;;;;;140.82;46.22;;;;;;;-149.78;100.00;50502.75;4792040;29;20372;-69
2022/03/03 01:35:40;;;;;;;133.07;45.40;;;;;;;-149.78;100.00;50491.00;4807998;29;20122;-69
2022/03/03 01:38:06;;;;;;;138.43;47.88;;;;;;;-149.78;100.00;50510.56;4807948;29;20503;-69
2022/03/03 01:40:32;;;;;;;136.57;46.80;;;;;;;-149.78;100.00;50475.34;4807980;29;20050;-69
2022/03/03 01:42:57;;;;;;;132.45;45.50;;;;;;;-149.78;100.00;50537.94;4807793;29;20066;-69
2022/03/03 01:45:23;;;;;;;136.52;47.40;;;;;;;-149.78;100.00;50491.00;4807978;29;20049;-69
2022/03/03 01:47:49;;;;;;;131.32;46.03;;;;;;;-149.78;100.00;50502.75;4807943;29;20039;-69
2022/03/03 01:50:15;;;;;;;137.55;46.30;;;;;;;-149.78;100.00;50534.03;4807757;29;20046;-69
2022/03/03 01:52:41;;;;;;;129.30;46.58;;;;;;;-149.78;100.00;50487.09;4807587;29;20047;-69
2022/03/03 01:55:10;;;;;;;139.32;47.33;;;;;;;-149.78;100.00;50496.88;4791968;29;20392;-69
2022/03/03 01:57:36;;;;;;;132.23;46.35;;;;;;;-149.78;100.00;50541.84;4807642;29;20447;-69
2022/03/03 02:00:06;;;;;;;146.07;48.17;;;;;;;-149.78;100.00;50483.19;4814301;29;20067;-69
2022/03/03 02:02:32;;;;;;;138.05;47.00;;;;;;;-149.78;100.00;50518.38;4788409;29;20380;-69
2022/03/03 02:04:58;;;;;;;133.77;46.78;;;;;;;-149.78;100.00;50494.91;4791188;29;20034;-70
2022/03/03 02:07:27;;;;;;;128.63;43.88;;;;;;;-149.78;100.00;50496.88;4789101;29;20471;-69
2022/03/03 02:09:52;;;;;;;140.32;46.97;;;;;;;-149.78;100.00;50485.13;4804982;29;20042;-69
2022/03/03 02:12:18;;;;;;;135.48;46.50;;;;;;;-149.78;100.00;50467.53;4809182;29;20043;-69
2022/03/03 02:14:48;;;;;;;134.02;46.55;;;;;;;-149.78;100.00;50489.03;4825659;29;20489;-69
2022/03/03 02:17:15;;;;;;;142.98;47.22;;;;;;;-149.78;100.00;50498.81;4817936;29;20137;-69
2022/03/03 02:19:42;;;;;;;135.32;48.17;;;;;;;-149.78;100.00;50522.28;4807307;29;20039;-70
2022/03/03 02:22:08;;;;;;;130.00;46.15;;;;;;;-149.78;100.00;50491.00;4806918;29;20046;-69
2022/03/03 02:24:35;;;;;;;141.05;46.97;;;;;;;-149.78;100.00;50526.22;4807290;29;20483;-69
2022/03/03 02:27:01;;;;;;;144.35;46.85;;;;;;;-149.78;100.00;50522.28;4790693;29;20039;-69
2022/03/03 02:29:31;;;;;;;132.70;44.92;;;;;;;-149.78;100.00;50520.34;4790807;29;20073;-69
2022/03/03 02:31:57;;;;;;;134.02;46.70;;;;;;;-149.78;100.00;50518.38;4807715;29;20043;-69
2022/03/03 02:34:23;;;;;;;130.40;46.63;;;;;;;-149.78;100.00;50479.28;4790906;29;20042;-69
2022/03/03 02:36:49;;;;;;;134.20;47.95;;;;;;;-149.78;100.00;50487.09;4790738;29;20042;-69
2022/03/03 02:39:15;;;;;;;130.35;45.88;;;;;;;-149.78;100.00;50522.28;4807027;29;20047;-69
2022/03/03 02:41:40;;;;;;;134.20;47.55;;;;;;;-149.78;100.00;50502.75;4790903;29;20043;-69
2022/03/03 02:44:06;;;;;;;139.23;49.17;;;;;;;-149.78;100.00;50522.28;4806579;29;20118;-69
2022/03/03 02:46:32;;;;;;;139.88;47.28;;;;;;;-149.78;100.00;50520.34;4823827;29;20042;-69
2022/03/03 02:48:58;;;;;;;138.45;46.97;;;;;;;-149.78;100.00;50506.66;4825004;29;20555;-69
2022/03/03 02:51:24;;;;;;;145.98;48.05;;;;;;;-149.78;100.00;50510.56;4824913;29;20061;-69
2022/03/03 02:53:50;;;;;;;136.93;47.42;;;;;;;-149.78;100.00;50553.59;4825418;29;20085;-69
2022/03/03 02:56:15;;;;;;;137.50;47.22;;;;;;;-149.78;100.00;50502.75;4808759;29;20432;-69
2022/03/03 02:58:42;;;;;;;134.57;47.97;;;;;;;-149.78;100.00;50498.81;4825080;29;20433;-69
2022/03/03 03:01:09;;;;;;;141.38;48.45;;;;;;;-149.78;100.00;50510.56;4816401;29;20039;-69
2022/03/03 03:03:35;;;;;;;134.75;48.65;;;;;;;-149.78;100.00;50502.75;4786304;29;20452;-69
2022/03/03 03:06:00;;;;;;;139.02;49.53;;;;;;;-149.78;100.00;50498.81;4808372;29;20122;-69
2022/03/03 03:08:26;;;;;;;127.88;48.67;;;;;;;-149.78;100.00;50522.28;4804654;29;20070;-69
2022/03/03 03:10:51;;;;;;;139.05;50.35;;;;;;;-149.78;100.00;50502.75;4809756;29;20134;-69
2022/03/03 03:13:17;;;;;;;132.88;47.95;;;;;;;-149.78;100.00;50510.56;4790280;29;20134;-69
2022/03/03 03:15:45;;;;;;;140.95;49.03;;;;;;;-149.78;100.00;50518.38;4805208;29;20114;-69
2022/03/03 03:18:12;;;;;;;137.13;48.80;;;;;;;-149.78;100.00;50518.38;4809236;29;20368;-69
2022/03/03 03:20:39;;;;;;;140.00;47.80;;;;;;;-149.78;100.00;50514.47;4806485;29;20464;-69
2022/03/03 03:23:10;;;;;;;130.68;46.75;;;;;;;-149.78;100.00;50481.22;4790380;29;20387;-69
2022/03/03 03:25:43;;;;;;;139.60;48.58;;;;;;;-149.78;100.00;50526.22;4790164;29;20843;-69
2022/03/03 03:28:10;;;;;;;141.75;47.70;;;;;;;-149.78;100.00;50541.84;4806414;29;20467;-69
2022/03/03 03:30:35;;;;;;;137.10;48.33;;;;;;;-149.78;100.00;50522.28;4804905;29;20532;-69
2022/03/03 03:33:01;;;;;;;131.75;46.15;;;;;;;-149.78;100.00;50498.81;4806116;29;20103;-69
2022/03/03 03:35:26;;;;;;;138.25;47.90;;;;;;;-149.78;100.00;50506.66;4789868;29;20396;-69
2022/03/03 03:37:53;;;;;;;133.75;48.90;;;;;;;-149.78;100.00;50489.03;4810768;29;20099;-69
2022/03/03 03:40:18;;;;;;;129.07;47.47;;;;;;;-149.78;100.00;50520.34;4806446;29;20059;-69
2022/03/03 03:42:44;;;;;;;143.18;49.38;;;;;;;-149.78;100.00;50518.38;4806254;29;20126;-69
2022/03/03 03:45:11;;;;;;;133.23;46.55;;;;;;;-149.78;100.00;50506.66;4806278;29;20063;-69
2022/03/03 03:47:37;;;;;;;137.00;48.58;;;;;;;-149.78;100.00;50514.47;4789960;29;20095;-69
2022/03/03 03:50:05;;;;;;;135.23;47.60;;;;;;;-149.78;100.00;50534.03;4806418;29;20107;-69
2022/03/03 03:52:31;;;;;;;134.95;47.85;;;;;;;-149.78;100.00;50498.81;4805983;29;20039;-69
2022/03/03 03:54:58;;;;;;;144.18;50.90;;;;;;;-149.78;100.00;50498.81;4790026;29;20039;-69
2022/03/03 03:57:23;;;;;;;137.45;49.20;;;;;;;-149.78;100.00;50510.56;4806290;29;20070;-69
2022/03/03 03:59:49;;;;;;;143.02;49.28;;;;;;;-149.78;100.00;50494.91;4817346;29;20468;-69
2022/03/03 04:02:15;;;;;;;133.38;48.42;;;;;;;-149.78;100.00;50518.38;4824701;29;20513;-69
2022/03/03 04:04:40;;;;;;;137.02;49.33;;;;;;;-149.78;100.00;50510.56;4815116;29;20031;-69
2022/03/03 04:07:06;;;;;;;132.60;48.33;;;;;;;-149.78;100.00;50498.81;4816429;29;20416;-69
2022/03/03 04:09:31;;;;;;;134.25;48.58;;;;;;;-149.78;100.00;50522.28;4811499;29;20429;-69
2022/03/03 04:11:57;;;;;;;145.57;48.95;;;;;;;-149.78;100.00;50502.75;4814903;29;20126;-69
2022/03/03 04:14:22;;;;;;;134.88;47.30;;;;;;;-149.78;100.00;50510.56;4808703;29;20473;-69
2022/03/03 04:16:49;;;;;;;131.75;46.25;;;;;;;-149.78;100.00;50526.22;4814479;29;20112;-69
2022/03/03 04:19:14;;;;;;;140.40;46.90;;;;;;;-149.78;100.00;50494.91;4821637;29;20042;-69
2022/03/03 04:21:41;;;;;;;141.48;49.38;;;;;;;-149.78;100.00;50494.91;4793118;29;20045;-69
2022/03/03 04:24:07;;;;;;;146.80;49.78;;;;;;;-149.78;100.00;50522.28;4793051;29;20475;-69
2022/03/03 04:26:34;;;;;;;145.32;49.38;;;;;;;-149.78;100.00;50510.56;4809380;29;20043;-69
2022/03/03 04:29:00;;;;;;;144.63;49.25;;;;;;;-149.78;100.00;50526.22;4792865;29;20068;-69
2022/03/03 04:31:27;;;;;;;150.15;49.47;;;;;;;-149.78;100.00;50498.81;4808169;29;20050;-69
2022/03/03 04:33:53;;;;;;;143.70;50.58;;;;;;;-149.78;100.00;50506.66;4808723;29;20050;-69
2022/03/03 04:36:20;;;;;;;154.55;51.65;;;;;;;-149.78;100.00;50510.56;4793109;29;20472;-69
2022/03/03 04:38:47;;;;;;;154.52;51.70;;;;;;;-149.78;100.00;50494.91;4809266;29;20050;-69
2022/03/03 04:41:13;;;;;;;139.70;48.95;;;;;;;-149.78;100.00;50518.38;4804648;29;20042;-69
2022/03/03 04:43:39;;;;;;;161.93;52.72;;;;;;;-149.78;100.00;50487.09;4811516;29;20030;-69
2022/03/03 04:46:05;;;;;;;149.80;52.22;;;;;;;-149.78;100.00;50522.28;4808926;29;20050;-69
2022/03/03 04:48:32;;;;;;;145.40;48.35;;;;;;;-149.78;100.00;50530.13;4809173;29;20046;-69
2022/03/03 04:50:59;;;;;;;153.63;51.20;;;;;;;-149.78;100.00;50522.28;4792679;29;20179;-69
2022/03/03 04:53:26;;;;;;;143.85;49.22;;;;;;;-149.78;100.00;50530.13;4808840;29;20039;-69
2022/03/03 04:55:52;;;;;;;141.25;49.53;;;;;;;-149.78;100.00;50565.31;4808903;29;20034;-69
2022/03/03 04:58:18;;;;;;;144.80;50.90;;;;;;;-149.78;100.00;50496.88;4807560;29;20526;-69
2022/03/03 05:00:44;;;;;;;158.30;51.67;;;;;;;-149.78;100.00;50530.13;4808712;29;20035;-69
2022/03/03 05:03:10;;;;;;;148.15;49.50;;;;;;;-149.78;100.00;50522.28;4808613;29;20062;-69
2022/03/03 05:05:35;;;;;;;147.35;49.95;;;;;;;-149.78;100.00;50483.19;4817306;29;20038;-69
2022/03/03 05:08:02;;;;;;;153.98;53.17;;;;;;;-149.78;100.00;50475.34;4792852;29;20122;-69
2022/03/03 05:10:27;;;;;;;142.50;49.15;;;;;;;-149.78;100.00;50524.25;4808090;29;20134;-69
2022/03/03 05:12:54;;;;;;;138.27;48.00;;;;;;;-149.78;100.00;50526.22;4818998;29;20409;-69
2022/03/03 05:15:20;;;;;;;146.73;52.25;;;;;;;-149.78;100.00;50506.66;4810590;29;20046;-69
2022/03/03 05:17:46;;;;;;;148.63;50.22;;;;;;;-149.78;100.00;50489.03;4813883;29;20046;-69
2022/03/03 05:20:12;;;;;;;164.32;55.42;;;;;;;-149.78;100.00;50500.78;4808393;29;20427;-70
2022/03/03 05:22:39;;;;;;;163.15;53.88;;;;;;;-149.78;100.00;50522.28;4808388;29;20035;-69
2022/03/03 05:25:05;;;;;;;152.52;53.10;;;;;;;-149.78;100.00;50518.38;4808350;29;20070;-69
2022/03/03 05:27:30;;;;;;;152.98;51.55;;;;;;;-149.78;100.00;50510.56;4790486;29;20081;-69
2022/03/03 05:29:56;;;;;;;145.07;50.08;;;;;;;-149.78;100.00;50526.22;4802808;29;20055;-69
2022/03/03 05:32:22;;;;;;;144.70;51.78;;;;;;;-149.78;100.00;50518.38;4791157;29;20423;-69
2022/03/03 05:34:48;;;;;;;159.35;53.50;;;;;;;-149.78;100.00;50492.97;4808136;29;20495;-69
2022/03/03 05:37:23;;;;;;;161.10;57.40;;;;;;;-149.78;100.00;50502.75;4804046;29;20042;-69
2022/03/03 05:39:50;;;;;;;154.65;54.42;;;;;;;-149.78;100.00;50528.16;4808728;29;20039;-69
2022/03/03 05:42:15;;;;;;;153.77;53.08;;;;;;;-149.78;100.00;50492.97;4797891;29;20046;-69
2022/03/03 05:44:42;;;;;;;161.85;55.45;;;;;;;-149.78;100.00;50539.91;4777696;29;20039;-69
2022/03/03 05:47:08;;;;;;;176.50;57.70;;;;;;;-149.78;100.00;50547.72;4797066;29;20042;-69
2022/03/03 05:49:36;;;;;;;168.60;58.47;;;;;;;-149.78;100.00;50551.63;4803765;29;20043;-69
2022/03/03 05:52:02;;;;;;;173.10;59.03;;;;;;;-149.78;100.00;50522.28;4793740;29;20042;-69
2022/03/03 05:54:28;;;;;;;164.32;57.42;;;;;;;-149.78;100.00;50506.66;4792386;29;20129;-69
2022/03/03 05:56:54;;;;;;;179.43;59.50;;;;;;;-149.78;100.00;50551.63;4797537;29;20471;-69
2022/03/03 05:59:23;;;;;;;187.48;61.00;;;;;;;-149.78;100.00;50504.69;4796434;29;20070;-69
2022/03/03 06:01:49;;;;;;;166.63;57.42;;;;;;;-149.78;100.00;50537.94;4800327;29;20065;-69
2022/03/03 06:04:16;;;;;;;158.38;56.22;;;;;;;-149.78;100.00;50532.06;4816131;29;20045;-68
2022/03/03 06:07:02;;;;;;;173.90;58.03;;;;;;;-149.78;100.00;50491.00;4823973;29;20053;-68
2022/03/03 06:09:32;;;;;;;164.18;56.90;;;;;;;-149.78;100.00;50508.59;4808743;29;20042;-68
2022/03/03 06:12:16;;;;;;;177.23;58.95;;;;;;;-149.78;100.00;50518.38;4825526;29;20050;-68
2022/03/03 06:14:50;;;;;;;159.73;55.28;;;;;;;-149.78;100.00;50510.56;4818494;29;20034;-68
2022/03/03 06:17:19;;;;;;;159.35;54.58;;;;;;;-149.78;100.00;50502.75;4791897;29;20039;-68
2022/03/03 06:19:46;;;;;;;151.73;54.58;;;;;;;-149.78;100.00;50498.81;4807126;29;20045;-68
2022/03/03 06:22:12;;;;;;;168.98;59.83;;;;;;;-149.78;100.00;50512.50;4807395;29;20064;-69
2022/03/03 06:24:38;;;;;;;170.10;59.95;;;;;;;-149.78;100.00;50526.22;4806508;29;20353;-69
2022/03/03 06:27:04;;;;;;;165.10;59.47;;;;;;;-149.78;100.00;50494.91;4807304;29;20050;-69
2022/03/03 06:29:31;;;;;;;168.02;57.67;;;;;;;-149.78;100.00;50530.13;4807071;29;20062;-69
2022/03/03 06:31:58;;;;;;;173.35;60.42;;;;;;;-149.78;100.00;50514.47;4807107;29;20168;-69
2022/03/03 06:34:24;;;;;;;162.90;58.50;;;;;;;-149.78;100.00;50541.84;4790812;29;20042;-69
2022/03/03 06:36:50;;;;;;;166.30;59.30;;;;;;;-149.78;100.00;50514.47;4806851;29;20051;-69
2022/03/03 06:39:16;;;;;;;171.38;58.85;;;;;;;-149.78;100.00;50528.16;4806829;29;20078;-69
2022/03/03 06:41:42;;;;;;;157.32;57.88;;;;;;;-149.78;100.00;50502.75;4806950;29;20112;-69
2022/03/03 06:44:08;;;;;;;164.82;56.05;;;;;;;-149.78;100.00;50504.69;4806991;29;20050;-69
2022/03/03 06:46:34;;;;;;;159.88;58.88;;;;;;;-149.78;100.00;50506.66;4789522;29;20042;-69
2022/03/03 06:49:00;;;;;;;164.25;58.60;;;;;;;-149.78;100.00;50514.47;4797527;29;20063;-69
2022/03/03 06:51:33;;;;;;;173.30;59.85;;;;;;;-149.78;100.00;50502.75;4784778;29;20071;-69
2022/03/03 06:54:01;;;;;;;;;;;;;;;-149.78;100.00;50553.59;4790785;29;20047;-69
2022/03/03 06:56:30;;;;;;;163.68;55.65;;;;;;;-149.78;100.00;50522.28;4796432;29;19970;-69
2022/03/03 06:58:59;;;;;;;174.30;59.63;;;;;;;-149.78;100.00;50498.81;4797943;29;20058;-69
2022/03/03 07:01:28;;;;;;;168.63;58.92;;;;;;;-149.78;100.00;50545.75;4793186;29;20035;-69
2022/03/03 07:03:56;;;;;;;170.35;58.67;;;;;;;-149.78;100.00;50573.16;4787520;29;20038;-68
2022/03/03 07:06:22;;;;;;;171.93;58.90;;;;;;;-149.78;100.00;50506.66;4787926;29;20045;-69
2022/03/03 07:08:53;;;;;;;178.10;59.78;;;;;;;-149.78;100.00;50522.28;4796694;29;20049;-69
2022/03/03 07:11:19;;;;;;;163.27;58.45;;;;;;;-149.78;100.00;50496.88;4796006;29;20031;-68
2022/03/03 07:13:46;;;;;;;164.80;61.13;;;;;;;-149.78;100.00;50502.75;4821960;29;20046;-69
2022/03/03 07:16:41;;;;;;;168.68;59.22;;;;;;;-149.78;100.00;50508.59;4805597;29;20126;-69
2022/03/03 07:19:39;;;;;;;169.00;59.38;;;;;;;-149.78;100.00;50463.63;4790722;29;20397;-69
2022/03/03 07:22:11;;;;;;;161.50;58.42;;;;;;;-149.78;100.00;50498.81;4768853;30;20048;-68
2022/03/03 07:24:43;;;;;;;161.20;59.65;;;;;;;-149.78;100.00;50502.75;4787290;30;20091;-69
2022/03/03 07:27:21;;;;;;;172.77;61.70;;;;;;;-149.78;100.00;50534.03;4787343;30;20047;-69
2022/03/03 07:29:54;;;;;;;167.90;59.85;;;;;;;-149.78;100.00;50491.00;4788137;30;20089;-69
2022/03/03 07:32:23;;;;;;;172.40;60.78;;;;;;;-149.78;100.00;50518.38;4798888;29;20066;-70
2022/03/03 07:34:56;;;;;;;173.30;61.22;;;;;;;-149.78;100.00;50492.97;4806275;29;20030;-69
2022/03/03 07:37:29;;;;;;;166.93;58.80;;;;;;;-149.78;100.00;50477.31;4811535;29;20398;-69
2022/03/03 07:40:02;;;;;;;173.20;60.45;;;;;;;-149.78;100.00;50534.03;4795964;29;20115;-70
2022/03/03 07:42:27;;;;;;;;;;;;;;;-149.78;100.00;50532.06;4795390;29;20035;-69
2022/03/03 07:44:55;;;;;;;156.57;56.60;;;;;;;-149.78;100.00;50510.56;4795288;29;19925;-68
2022/03/03 07:47:21;;;;;;;166.30;59.25;;;;;;;-149.78;100.00;50502.75;4778024;30;20773;-70
2022/03/03 07:49:48;;;;;;;164.45;59.78;;;;;;;-149.78;100.00;50502.75;4804707;29;20043;-70
2022/03/03 07:52:14;;;;;;;166.90;61.30;;;;;;;-149.78;100.00;50516.44;4793989;29;20102;-70
2022/03/03 07:54:40;;;;;;;161.90;59.10;;;;;;;-149.78;100.00;50502.75;4803741;29;20034;-70
2022/03/03 07:57:12;;;;;;;159.00;56.72;;;;;;;-149.78;100.00;50510.56;4810373;29;20046;-71
2022/03/03 07:59:45;;;;;;;164.05;57.83;;;;;;;-149.78;100.00;50510.56;4795416;29;20091;-72
2022/03/03 08:02:22;;;;;;;159.35;59.20;;;;;;;-149.78;100.00;50534.03;4794126;30;20034;-71
2022/03/03 08:04:50;;;;;;;156.40;57.35;;;;;;;-149.78;100.00;50510.56;4803686;29;20038;-70
2022/03/03 08:07:17;;;;;;;167.38;60.40;;;;;;;-149.78;100.00;50502.75;4805078;29;20449;-70
2022/03/03 08:09:46;;;;;;;166.48;60.25;;;;;;;-149.78;100.00;50510.56;4805008;29;20042;-70
2022/03/03 08:12:14;;;;;;;161.88;58.25;;;;;;;-149.78;100.00;50510.56;4799214;29;20062;-70
2022/03/03 08:14:40;;;;;;;153.25;58.00;;;;;;;-149.78;100.00;50491.00;4811847;29;20433;-70
2022/03/03 08:17:08;;;;;;;160.63;59.95;;;;;;;-149.78;100.00;50516.44;4801822;29;20039;-70
2022/03/03 08:19:34;;;;;;;161.50;59.85;;;;;;;-149.78;100.00;50537.94;4801369;29;20091;-70
2022/03/03 08:21:59;;;;;;;163.00;58.63;;;;;;;-149.78;100.00;50518.38;4776516;29;20122;-70
2022/03/03 08:24:26;;;;;;;163.75;58.75;;;;;;;-149.78;100.00;50526.22;4805079;29;20610;-70
2022/03/03 08:26:56;;;;;;;149.88;57.53;;;;;;;-149.78;100.00;50512.50;4791518;29;20039;-70
2022/03/03 08:29:22;;;;;;;155.25;56.05;;;;;;;-149.78;100.00;50502.75;4809946;29;20373;-70
2022/03/03 08:31:54;;;;;;;147.35;54.08;;;;;;;-149.78;100.00;50526.22;4794825;29;20103;-70
2022/03/03 08:35:00;;;;;;;156.27;56.85;;;;;;;-149.78;100.00;50506.66;4810212;29;20045;-70
2022/03/03 08:37:34;;;;;;;154.15;56.67;;;;;;;-149.78;100.00;50479.28;4810100;29;20149;-70
2022/03/03 08:40:01;;;;;;;144.05;53.88;;;;;;;-149.78;100.00;50541.84;4818374;29;20030;-70
2022/03/03 08:42:34;;;;;;;141.05;55.15;;;;;;;-149.78;100.00;50528.16;4818393;29;20050;-70
2022/03/03 08:45:04;;;;;;;149.77;57.42;;;;;;;-149.78;100.00;50467.53;4816066;29;20187;-70
2022/03/03 08:47:31;;;;;;;139.88;54.67;;;;;;;-149.78;100.00;50491.00;4817139;29;20680;-71
2022/03/03 08:50:06;;;;;;;153.70;56.67;;;;;;;-149.78;100.00;50496.88;4786221;29;20243;-69
2022/03/03 08:52:31;;;;;;;150.73;56.28;;;;;;;-149.78;100.00;50498.81;4797739;29;20095;-69
2022/03/03 08:54:58;;;;;;;146.75;56.15;;;;;;;-149.78;100.00;50469.50;4792757;29;20798;-69
2022/03/03 08:57:24;;;;;;;144.18;55.40;;;;;;;-149.78;100.00;50457.75;4798573;29;20079;-69
2022/03/03 08:59:49;;;;;;;138.98;54.42;;;;;;;-149.78;100.00;50510.56;4804467;29;20039;-69
2022/03/03 09:02:20;;;;;;;153.38;57.28;;;;;;;-149.78;100.00;50518.38;4790454;29;20035;-69
2022/03/03 09:04:46;;;;;;;142.77;54.72;;;;;;;-149.78;100.00;50508.59;4810960;29;20732;-69
2022/03/03 09:07:13;;;;;;;142.27;54.75;;;;;;;-149.78;100.00;50479.28;4826554;29;20038;-69
2022/03/03 09:09:39;;;;;;;140.52;54.72;;;;;;;-149.78;100.00;50524.25;4826431;29;20070;-69
2022/03/03 09:12:05;;;;;;;140.40;52.58;;;;;;;-149.78;100.00;50498.81;4809838;29;20123;-69
2022/03/03 09:14:31;;;;;;;141.35;53.15;;;;;;;-149.78;100.00;50506.66;4810245;29;20038;-69
2022/03/03 09:16:58;;;;;;;146.07;53.20;;;;;;;-149.78;100.00;50522.28;4820899;29;20112;-69
2022/03/03 09:19:24;;;;;;;142.93;53.72;;;;;;;-149.78;100.00;50475.34;4791995;29;20487;-69
2022/03/03 09:21:49;;;;;;;145.32;54.03;;;;;;;-149.78;100.00;50475.34;4808065;29;20047;-69
2022/03/03 09:24:15;;;;;;;146.45;55.80;;;;;;;-149.78;100.00;50498.81;4803010;29;20123;-69
2022/03/03 09:26:41;;;;;;;143.75;55.33;;;;;;;-149.78;100.00;50487.09;4788511;30;20043;-70
2022/03/03 09:29:07;;;;;;;143.38;52.33;;;;;;;-149.78;100.00;50510.56;4773955;30;20134;-69
2022/03/03 09:31:33;;;;;;;151.00;55.22;;;;;;;-149.78;100.00;50479.28;4789075;30;20047;-70
2022/03/03 09:33:59;;;;;;;150.13;56.83;;;;;;;-149.78;100.00;50512.50;4789856;29;20044;-70
2022/03/03 09:36:24;;;;;;;155.63;57.55;;;;;;;-149.78;100.00;50494.91;4784036;29;20043;-69
2022/03/03 09:38:50;;;;;;;154.98;56.40;;;;;;;-149.78;100.00;50489.03;4791314;29;20478;-69
2022/03/03 09:41:16;;;;;;;146.65;56.45;;;;;;;-149.78;100.00;50491.00;4807689;29;20051;-69
2022/03/03 09:43:42;;;;;;;145.63;54.80;;;;;;;-149.78;100.00;50528.16;4788777;29;20261;-70
2022/03/03 09:46:09;;;;;;;147.52;56.88;;;;;;;-149.78;100.00;50498.81;4807867;29;20043;-69
2022/03/03 09:48:35;;;;;;;150.60;57.58;;;;;;;-149.78;100.00;50514.47;4788261;29;20399;-69
2022/03/03 09:51:01;;;;;;;155.43;57.50;;;;;;;-149.78;100.00;50502.75;4791500;29;20038;-69
2022/03/03 09:53:27;;;;;;;154.05;56.85;;;;;;;-149.78;100.00;50459.72;4807698;29;20113;-69
2022/03/03 09:55:53;;;;;;;149.65;56.60;;;;;;;-149.78;100.00;50494.91;4807164;29;20035;-69
2022/03/03 09:58:19;;;;;;;154.13;56.25;;;;;;;-149.78;100.00;50496.88;4801733;29;20042;-69
2022/03/03 10:00:46;;;;;;;153.02;57.67;;;;;;;-149.78;100.00;50502.75;4781001;29;20129;-70
2022/03/03 10:03:17;;;;;;;161.63;57.88;;;;;;;-149.78;100.00;50528.16;4793473;29;20067;-70
2022/03/03 10:05:51;;;;;;;154.43;56.42;;;;;;;-149.78;100.00;50506.66;4825723;29;20049;-70
2022/03/03 10:08:20;;;;;;;150.48;57.50;;;;;;;-149.78;100.00;50534.03;4796801;29;20037;-70
2022/03/03 10:10:53;;;;;;;171.68;61.70;;;;;;;-149.78;100.00;50491.00;4805942;29;20062;-70
2022/03/03 10:13:21;;;;;;;159.07;58.35;;;;;;;-149.78;100.00;50506.66;4821593;29;20085;-70
2022/03/03 10:16:01;;;;;;;157.80;57.97;;;;;;;-149.78;100.00;50520.34;4794090;29;20039;-70
2022/03/03 10:18:27;;;;;;;157.35;57.42;;;;;;;-149.78;100.00;50494.91;4808145;29;20114;-70
2022/03/03 10:20:55;;;;;;;156.75;57.15;;;;;;;-149.78;100.00;50498.81;4806977;29;20062;-70
2022/03/03 10:23:33;;;;;;;147.65;55.13;;;;;;;-149.78;100.00;50518.38;4807189;29;20114;-70
2022/03/03 10:26:03;;;;;;;152.25;57.92;;;;;;;-149.78;100.00;50479.28;4775882;29;20498;-69
2022/03/03 10:28:31;;;;;;;166.80;58.92;;;;;;;-149.78;100.00;50518.38;4797479;29;20039;-69
2022/03/03 10:31:03;;;;;;;154.15;56.65;;;;;;;-149.78;100.00;50491.00;4791360;29;20495;-69
2022/03/03 10:33:30;;;;;;;160.23;56.45;;;;;;;-149.78;100.00;50489.03;4775754;30;20046;-70
2022/03/03 10:36:05;;;;;;;155.00;56.47;;;;;;;-149.78;100.00;50506.66;4789025;30;20468;-70
2022/03/03 10:38:34;;;;;;;156.95;57.47;;;;;;;-149.78;100.00;50506.66;4787835;30;20042;-69
2022/03/03 10:41:00;;;;;;;141.93;54.95;;;;;;;-149.78;100.00;50491.00;4787978;30;20495;-69
2022/03/03 10:43:26;;;;;;;148.23;56.15;;;;;;;-149.78;100.00;50489.03;4788959;30;20043;-70
2022/03/03 10:45:54;;;;;;;152.57;56.22;;;;;;;-149.78;100.00;50506.66;4788889;30;20043;-70
2022/03/03 10:48:24;;;;;;;144.75;54.25;;;;;;;-149.78;100.00;50551.63;4788925;30;20042;-70